sensor_id;sensor_type;location;lat;lon;timestamp;P1;durP1;ratioP1;P2;durP2;ratioP2
23868;SDS011;12115;47.128;15.422;2023-06-04T00:00:06;8.32;;;4.63;;
23868;SDS011;12115;47.128;15.422;2023-06-04T00:02:35;8.00;;;4.65;;
23868;SDS011;12115;47.128;15.422;2023-06-04T00:05:03;6.45;;;4.57;;
23868;SDS011;12115;47.128;15.422;2023-06-04T00:07:30;6.47;;;4.35;;
23868;SDS011;12115;47.128;15.422;2023-06-04T00:09:58;7.38;;;4.53;;
23868;SDS011;12115;47.128;15.422;2023-06-04T00:12:25;6.45;;;4.40;;
23868;SDS011;12115;47.128;15.422;2023-06-04T00:14:52;6.55;;;4.38;;
23868;SDS011;12115;47.128;15.422;2023-06-04T00:17:19;6.38;;;4.30;;
23868;SDS011;12115;47.128;15.422;2023-06-04T00:19:46;5.53;;;4.13;;
23868;SDS011;12115;47.128;15.422;2023-06-04T00:22:14;7.15;;;4.22;;
23868;SDS011;12115;47.128;15.422;2023-06-04T00:24:41;8.32;;;4.45;;
23868;SDS011;12115;47.128;15.422;2023-06-04T00:27:08;10.63;;;4.57;;
23868;SDS011;12115;47.128;15.422;2023-06-04T00:29:35;8.82;;;4.15;;
23868;SDS011;12115;47.128;15.422;2023-06-04T00:32:02;6.60;;;4.38;;
23868;SDS011;12115;47.128;15.422;2023-06-04T00:34:30;8.40;;;4.82;;
23868;SDS011;12115;47.128;15.422;2023-06-04T00:36:57;9.60;;;4.97;;
23868;SDS011;12115;47.128;15.422;2023-06-04T00:39:24;7.25;;;4.13;;
23868;SDS011;12115;47.128;15.422;2023-06-04T00:41:52;6.25;;;4.30;;
23868;SDS011;12115;47.128;15.422;2023-06-04T00:44:19;8.55;;;5.03;;
23868;SDS011;12115;47.128;15.422;2023-06-04T00:46:48;5.07;;;4.15;;
23868;SDS011;12115;47.128;15.422;2023-06-04T00:49:15;7.03;;;4.55;;
23868;SDS011;12115;47.128;15.422;2023-06-04T00:51:43;11.80;;;4.97;;
23868;SDS011;12115;47.128;15.422;2023-06-04T00:54:10;9.93;;;5.22;;
23868;SDS011;12115;47.128;15.422;2023-06-04T00:56:39;8.15;;;4.88;;
23868;SDS011;12115;47.128;15.422;2023-06-04T00:59:07;6.82;;;4.78;;
23868;SDS011;12115;47.128;15.422;2023-06-04T01:04:21;7.75;;;4.60;;
23868;SDS011;12115;47.128;15.422;2023-06-04T01:06:54;8.25;;;4.60;;
23868;SDS011;12115;47.128;15.422;2023-06-04T01:09:27;6.05;;;4.90;;
23868;SDS011;12115;47.128;15.422;2023-06-04T01:11:55;7.82;;;4.50;;
23868;SDS011;12115;47.128;15.422;2023-06-04T01:14:25;7.47;;;5.25;;
23868;SDS011;12115;47.128;15.422;2023-06-04T01:16:56;8.65;;;4.43;;
23868;SDS011;12115;47.128;15.422;2023-06-04T01:22:23;11.98;;;4.90;;
23868;SDS011;12115;47.128;15.422;2023-06-04T01:25:13;8.23;;;4.97;;
23868;SDS011;12115;47.128;15.422;2023-06-04T01:27:50;8.13;;;4.40;;
23868;SDS011;12115;47.128;15.422;2023-06-04T01:30:28;6.88;;;5.95;;
23868;SDS011;12115;47.128;15.422;2023-06-04T01:33:02;8.82;;;6.28;;
23868;SDS011;12115;47.128;15.422;2023-06-04T01:35:30;9.68;;;5.72;;
23868;SDS011;12115;47.128;15.422;2023-06-04T01:37:57;9.88;;;4.75;;
23868;SDS011;12115;47.128;15.422;2023-06-04T01:40:24;8.50;;;5.10;;
23868;SDS011;12115;47.128;15.422;2023-06-04T01:42:52;7.38;;;4.65;;
23868;SDS011;12115;47.128;15.422;2023-06-04T01:45:23;5.90;;;4.65;;
23868;SDS011;12115;47.128;15.422;2023-06-04T01:47:52;9.18;;;5.60;;
23868;SDS011;12115;47.128;15.422;2023-06-04T01:50:20;8.40;;;5.03;;
23868;SDS011;12115;47.128;15.422;2023-06-04T01:52:48;7.43;;;5.18;;
23868;SDS011;12115;47.128;15.422;2023-06-04T01:55:16;8.07;;;5.50;;
23868;SDS011;12115;47.128;15.422;2023-06-04T01:57:44;11.43;;;4.90;;
23868;SDS011;12115;47.128;15.422;2023-06-04T02:00:13;6.10;;;5.07;;
23868;SDS011;12115;47.128;15.422;2023-06-04T02:02:43;7.40;;;4.60;;
23868;SDS011;12115;47.128;15.422;2023-06-04T02:05:13;7.70;;;5.25;;
23868;SDS011;12115;47.128;15.422;2023-06-04T02:07:44;7.55;;;5.32;;
23868;SDS011;12115;47.128;15.422;2023-06-04T02:10:13;7.07;;;5.00;;
23868;SDS011;12115;47.128;15.422;2023-06-04T02:12:52;5.95;;;4.57;;
23868;SDS011;12115;47.128;15.422;2023-06-04T02:15:21;7.38;;;5.03;;
23868;SDS011;12115;47.128;15.422;2023-06-04T02:17:50;10.05;;;4.97;;
23868;SDS011;12115;47.128;15.422;2023-06-04T02:20:17;6.78;;;5.05;;
23868;SDS011;12115;47.128;15.422;2023-06-04T02:22:45;8.35;;;4.60;;
23868;SDS011;12115;47.128;15.422;2023-06-04T02:25:12;5.95;;;4.88;;
23868;SDS011;12115;47.128;15.422;2023-06-04T02:27:39;7.80;;;5.10;;
23868;SDS011;12115;47.128;15.422;2023-06-04T02:30:07;7.70;;;5.00;;
23868;SDS011;12115;47.128;15.422;2023-06-04T02:32:34;6.18;;;4.50;;
23868;SDS011;12115;47.128;15.422;2023-06-04T02:35:03;5.03;;;4.50;;
23868;SDS011;12115;47.128;15.422;2023-06-04T02:37:30;9.02;;;4.90;;
23868;SDS011;12115;47.128;15.422;2023-06-04T02:39:57;8.15;;;4.88;;
23868;SDS011;12115;47.128;15.422;2023-06-04T02:42:24;13.25;;;5.43;;
23868;SDS011;12115;47.128;15.422;2023-06-04T02:44:51;6.18;;;5.00;;
23868;SDS011;12115;47.128;15.422;2023-06-04T02:47:19;7.85;;;5.18;;
23868;SDS011;12115;47.128;15.422;2023-06-04T02:49:46;8.57;;;5.00;;
23868;SDS011;12115;47.128;15.422;2023-06-04T02:52:13;7.25;;;4.85;;
23868;SDS011;12115;47.128;15.422;2023-06-04T02:54:40;11.73;;;6.18;;
23868;SDS011;12115;47.128;15.422;2023-06-04T02:57:07;6.63;;;4.97;;
23868;SDS011;12115;47.128;15.422;2023-06-04T02:59:34;9.70;;;5.22;;
23868;SDS011;12115;47.128;15.422;2023-06-04T03:02:03;8.02;;;5.10;;
23868;SDS011;12115;47.128;15.422;2023-06-04T03:04:31;5.80;;;4.50;;
23868;SDS011;12115;47.128;15.422;2023-06-04T03:07:01;8.45;;;4.90;;
23868;SDS011;12115;47.128;15.422;2023-06-04T03:09:30;8.38;;;5.28;;
23868;SDS011;12115;47.128;15.422;2023-06-04T03:11:59;7.55;;;5.30;;
23868;SDS011;12115;47.128;15.422;2023-06-04T03:14:28;7.15;;;5.00;;
23868;SDS011;12115;47.128;15.422;2023-06-04T03:16:59;7.70;;;4.43;;
23868;SDS011;12115;47.128;15.422;2023-06-04T03:19:35;7.53;;;5.43;;
23868;SDS011;12115;47.128;15.422;2023-06-04T03:22:07;10.15;;;5.10;;
23868;SDS011;12115;47.128;15.422;2023-06-04T03:24:36;7.05;;;5.00;;
23868;SDS011;12115;47.128;15.422;2023-06-04T03:27:04;6.47;;;4.72;;
23868;SDS011;12115;47.128;15.422;2023-06-04T03:29:33;8.32;;;5.20;;
23868;SDS011;12115;47.128;15.422;2023-06-04T03:32:02;8.30;;;5.38;;
23868;SDS011;12115;47.128;15.422;2023-06-04T03:34:31;8.02;;;4.70;;
23868;SDS011;12115;47.128;15.422;2023-06-04T03:37:01;8.57;;;4.93;;
23868;SDS011;12115;47.128;15.422;2023-06-04T03:39:29;6.68;;;5.25;;
23868;SDS011;12115;47.128;15.422;2023-06-04T03:41:58;7.32;;;5.38;;
23868;SDS011;12115;47.128;15.422;2023-06-04T03:44:26;7.00;;;5.10;;
23868;SDS011;12115;47.128;15.422;2023-06-04T03:46:53;8.27;;;5.88;;
23868;SDS011;12115;47.128;15.422;2023-06-04T03:49:20;9.52;;;4.70;;
23868;SDS011;12115;47.128;15.422;2023-06-04T03:51:49;9.68;;;5.35;;
23868;SDS011;12115;47.128;15.422;2023-06-04T03:54:17;9.73;;;4.80;;
23868;SDS011;12115;47.128;15.422;2023-06-04T03:56:47;8.02;;;5.35;;
23868;SDS011;12115;47.128;15.422;2023-06-04T03:59:14;8.77;;;4.80;;
23868;SDS011;12115;47.128;15.422;2023-06-04T04:01:41;7.53;;;5.50;;
23868;SDS011;12115;47.128;15.422;2023-06-04T04:04:09;7.63;;;5.38;;
23868;SDS011;12115;47.128;15.422;2023-06-04T04:06:37;10.70;;;5.93;;
23868;SDS011;12115;47.128;15.422;2023-06-04T04:09:04;8.88;;;5.18;;
23868;SDS011;12115;47.128;15.422;2023-06-04T04:11:34;7.45;;;5.30;;
23868;SDS011;12115;47.128;15.422;2023-06-04T04:14:02;6.13;;;4.82;;
23868;SDS011;12115;47.128;15.422;2023-06-04T04:16:29;6.47;;;5.07;;
23868;SDS011;12115;47.128;15.422;2023-06-04T04:18:56;10.32;;;5.55;;
23868;SDS011;12115;47.128;15.422;2023-06-04T04:21:24;7.20;;;5.78;;
23868;SDS011;12115;47.128;15.422;2023-06-04T04:23:51;6.82;;;5.25;;
23868;SDS011;12115;47.128;15.422;2023-06-04T04:26:19;6.43;;;5.30;;
23868;SDS011;12115;47.128;15.422;2023-06-04T04:28:51;9.85;;;5.45;;
23868;SDS011;12115;47.128;15.422;2023-06-04T04:31:20;8.38;;;5.05;;
23868;SDS011;12115;47.128;15.422;2023-06-04T04:33:49;6.25;;;4.80;;
23868;SDS011;12115;47.128;15.422;2023-06-04T04:36:18;7.95;;;4.95;;
23868;SDS011;12115;47.128;15.422;2023-06-04T04:38:50;7.80;;;4.90;;
23868;SDS011;12115;47.128;15.422;2023-06-04T04:41:24;6.20;;;5.05;;
23868;SDS011;12115;47.128;15.422;2023-06-04T04:43:54;6.20;;;5.25;;
23868;SDS011;12115;47.128;15.422;2023-06-04T04:46:29;9.25;;;5.55;;
23868;SDS011;12115;47.128;15.422;2023-06-04T04:48:56;7.95;;;5.13;;
23868;SDS011;12115;47.128;15.422;2023-06-04T04:51:24;10.40;;;5.88;;
23868;SDS011;12115;47.128;15.422;2023-06-04T04:53:52;6.03;;;4.90;;
23868;SDS011;12115;47.128;15.422;2023-06-04T04:56:22;8.45;;;5.43;;
23868;SDS011;12115;47.128;15.422;2023-06-04T04:58:50;8.25;;;5.32;;
23868;SDS011;12115;47.128;15.422;2023-06-04T05:01:18;8.38;;;5.70;;
23868;SDS011;12115;47.128;15.422;2023-06-04T05:03:46;7.45;;;5.10;;
23868;SDS011;12115;47.128;15.422;2023-06-04T05:06:15;6.78;;;5.53;;
23868;SDS011;12115;47.128;15.422;2023-06-04T05:08:43;8.80;;;4.95;;
23868;SDS011;12115;47.128;15.422;2023-06-04T05:14:05;7.97;;;5.55;;
23868;SDS011;12115;47.128;15.422;2023-06-04T05:16:34;7.03;;;5.40;;
23868;SDS011;12115;47.128;15.422;2023-06-04T05:19:08;9.90;;;5.53;;
23868;SDS011;12115;47.128;15.422;2023-06-04T05:21:39;10.20;;;5.70;;
23868;SDS011;12115;47.128;15.422;2023-06-04T05:24:06;9.23;;;5.97;;
23868;SDS011;12115;47.128;15.422;2023-06-04T05:26:36;13.02;;;5.70;;
23868;SDS011;12115;47.128;15.422;2023-06-04T05:29:12;8.57;;;5.72;;
23868;SDS011;12115;47.128;15.422;2023-06-04T05:31:42;8.80;;;6.00;;
23868;SDS011;12115;47.128;15.422;2023-06-04T05:34:12;7.60;;;5.82;;
23868;SDS011;12115;47.128;15.422;2023-06-04T05:36:44;8.07;;;4.90;;
23868;SDS011;12115;47.128;15.422;2023-06-04T05:39:11;9.23;;;5.00;;
23868;SDS011;12115;47.128;15.422;2023-06-04T05:41:51;5.65;;;4.80;;
23868;SDS011;12115;47.128;15.422;2023-06-04T05:44:18;7.93;;;5.60;;
23868;SDS011;12115;47.128;15.422;2023-06-04T05:46:46;8.00;;;6.15;;
23868;SDS011;12115;47.128;15.422;2023-06-04T05:49:13;8.93;;;6.00;;
23868;SDS011;12115;47.128;15.422;2023-06-04T05:51:40;7.45;;;5.40;;
23868;SDS011;12115;47.128;15.422;2023-06-04T05:54:08;7.65;;;5.53;;
23868;SDS011;12115;47.128;15.422;2023-06-04T05:56:38;6.25;;;5.30;;
23868;SDS011;12115;47.128;15.422;2023-06-04T05:59:05;8.27;;;5.57;;
23868;SDS011;12115;47.128;15.422;2023-06-04T06:01:33;10.55;;;5.90;;
23868;SDS011;12115;47.128;15.422;2023-06-04T06:04:01;8.75;;;4.63;;
23868;SDS011;12115;47.128;15.422;2023-06-04T06:06:29;9.07;;;5.63;;
23868;SDS011;12115;47.128;15.422;2023-06-04T06:08:56;7.68;;;5.32;;
23868;SDS011;12115;47.128;15.422;2023-06-04T06:11:25;7.43;;;5.28;;
23868;SDS011;12115;47.128;15.422;2023-06-04T06:13:54;10.57;;;5.22;;
23868;SDS011;12115;47.128;15.422;2023-06-04T06:16:21;8.13;;;5.60;;
23868;SDS011;12115;47.128;15.422;2023-06-04T06:18:49;9.07;;;5.53;;
23868;SDS011;12115;47.128;15.422;2023-06-04T06:21:16;9.20;;;5.40;;
23868;SDS011;12115;47.128;15.422;2023-06-04T06:23:44;6.53;;;5.68;;
23868;SDS011;12115;47.128;15.422;2023-06-04T06:26:11;7.25;;;5.10;;
23868;SDS011;12115;47.128;15.422;2023-06-04T06:28:47;8.10;;;5.82;;
23868;SDS011;12115;47.128;15.422;2023-06-04T06:31:15;10.35;;;5.55;;
23868;SDS011;12115;47.128;15.422;2023-06-04T06:33:42;8.25;;;5.93;;
23868;SDS011;12115;47.128;15.422;2023-06-04T06:36:10;5.97;;;4.80;;
23868;SDS011;12115;47.128;15.422;2023-06-04T06:38:40;7.40;;;5.03;;
23868;SDS011;12115;47.128;15.422;2023-06-04T06:41:07;8.27;;;5.20;;
23868;SDS011;12115;47.128;15.422;2023-06-04T06:43:35;9.18;;;5.05;;
23868;SDS011;12115;47.128;15.422;2023-06-04T06:46:02;7.95;;;5.40;;
23868;SDS011;12115;47.128;15.422;2023-06-04T06:48:29;8.02;;;5.25;;
23868;SDS011;12115;47.128;15.422;2023-06-04T06:50:56;7.63;;;5.05;;
23868;SDS011;12115;47.128;15.422;2023-06-04T06:53:23;9.38;;;5.07;;
23868;SDS011;12115;47.128;15.422;2023-06-04T06:55:50;13.35;;;5.65;;
23868;SDS011;12115;47.128;15.422;2023-06-04T06:58:17;8.07;;;5.70;;
23868;SDS011;12115;47.128;15.422;2023-06-04T07:00:45;7.50;;;5.07;;
23868;SDS011;12115;47.128;15.422;2023-06-04T07:03:12;6.75;;;5.10;;
23868;SDS011;12115;47.128;15.422;2023-06-04T07:05:39;7.88;;;4.80;;
23868;SDS011;12115;47.128;15.422;2023-06-04T07:08:06;7.57;;;4.75;;
23868;SDS011;12115;47.128;15.422;2023-06-04T07:10:33;8.32;;;4.63;;
23868;SDS011;12115;47.128;15.422;2023-06-04T07:13:00;5.60;;;4.72;;
23868;SDS011;12115;47.128;15.422;2023-06-04T07:15:27;7.43;;;5.25;;
23868;SDS011;12115;47.128;15.422;2023-06-04T07:17:55;6.90;;;4.68;;
23868;SDS011;12115;47.128;15.422;2023-06-04T07:20:22;11.90;;;5.80;;
23868;SDS011;12115;47.128;15.422;2023-06-04T07:22:49;8.18;;;5.10;;
23868;SDS011;12115;47.128;15.422;2023-06-04T07:25:16;8.10;;;4.95;;
23868;SDS011;12115;47.128;15.422;2023-06-04T07:27:44;6.90;;;4.72;;
23868;SDS011;12115;47.128;15.422;2023-06-04T07:30:12;9.80;;;5.47;;
23868;SDS011;12115;47.128;15.422;2023-06-04T07:32:39;6.47;;;5.10;;
23868;SDS011;12115;47.128;15.422;2023-06-04T07:35:07;7.55;;;5.20;;
23868;SDS011;12115;47.128;15.422;2023-06-04T07:37:34;9.55;;;5.13;;
23868;SDS011;12115;47.128;15.422;2023-06-04T07:40:02;7.00;;;4.90;;
23868;SDS011;12115;47.128;15.422;2023-06-04T07:42:30;8.35;;;5.20;;
23868;SDS011;12115;47.128;15.422;2023-06-04T07:44:57;7.28;;;4.47;;
23868;SDS011;12115;47.128;15.422;2023-06-04T07:47:24;7.32;;;3.97;;
23868;SDS011;12115;47.128;15.422;2023-06-04T07:49:52;8.25;;;4.05;;
23868;SDS011;12115;47.128;15.422;2023-06-04T07:52:29;7.32;;;4.25;;
23868;SDS011;12115;47.128;15.422;2023-06-04T07:54:56;8.02;;;3.97;;
23868;SDS011;12115;47.128;15.422;2023-06-04T07:57:24;8.65;;;4.40;;
23868;SDS011;12115;47.128;15.422;2023-06-04T07:59:51;7.57;;;4.50;;
23868;SDS011;12115;47.128;15.422;2023-06-04T08:02:19;6.32;;;3.97;;
23868;SDS011;12115;47.128;15.422;2023-06-04T08:04:46;8.38;;;4.40;;
23868;SDS011;12115;47.128;15.422;2023-06-04T08:07:13;7.10;;;4.80;;
23868;SDS011;12115;47.128;15.422;2023-06-04T08:09:41;7.03;;;4.57;;
23868;SDS011;12115;47.128;15.422;2023-06-04T08:12:08;8.98;;;4.60;;
23868;SDS011;12115;47.128;15.422;2023-06-04T08:14:36;7.13;;;4.10;;
23868;SDS011;12115;47.128;15.422;2023-06-04T08:17:03;5.72;;;3.97;;
23868;SDS011;12115;47.128;15.422;2023-06-04T08:19:30;6.32;;;4.10;;
23868;SDS011;12115;47.128;15.422;2023-06-04T08:21:57;6.55;;;4.30;;
23868;SDS011;12115;47.128;15.422;2023-06-04T08:24:24;6.43;;;3.67;;
23868;SDS011;12115;47.128;15.422;2023-06-04T08:26:52;6.60;;;4.53;;
23868;SDS011;12115;47.128;15.422;2023-06-04T08:29:21;6.93;;;4.25;;
23868;SDS011;12115;47.128;15.422;2023-06-04T08:31:49;7.75;;;4.05;;
23868;SDS011;12115;47.128;15.422;2023-06-04T08:34:18;11.35;;;4.38;;
23868;SDS011;12115;47.128;15.422;2023-06-04T08:36:45;6.97;;;3.97;;
23868;SDS011;12115;47.128;15.422;2023-06-04T08:39:13;6.60;;;4.22;;
23868;SDS011;12115;47.128;15.422;2023-06-04T08:41:46;6.63;;;3.97;;
23868;SDS011;12115;47.128;15.422;2023-06-04T08:44:17;5.88;;;4.10;;
23868;SDS011;12115;47.128;15.422;2023-06-04T08:46:45;6.22;;;3.75;;
23868;SDS011;12115;47.128;15.422;2023-06-04T08:51:45;6.32;;;4.53;;
23868;SDS011;12115;47.128;15.422;2023-06-04T08:54:12;6.43;;;4.20;;
23868;SDS011;12115;47.128;15.422;2023-06-04T08:56:41;7.13;;;3.70;;
23868;SDS011;12115;47.128;15.422;2023-06-04T08:59:09;5.78;;;4.00;;
23868;SDS011;12115;47.128;15.422;2023-06-04T09:01:37;6.18;;;4.32;;
23868;SDS011;12115;47.128;15.422;2023-06-04T09:04:05;7.82;;;3.97;;
23868;SDS011;12115;47.128;15.422;2023-06-04T09:06:39;8.32;;;4.55;;
23868;SDS011;12115;47.128;15.422;2023-06-04T09:09:09;8.40;;;4.00;;
23868;SDS011;12115;47.128;15.422;2023-06-04T09:11:41;7.30;;;4.05;;
23868;SDS011;12115;47.128;15.422;2023-06-04T09:14:17;6.63;;;4.40;;
23868;SDS011;12115;47.128;15.422;2023-06-04T09:16:49;8.02;;;4.13;;
23868;SDS011;12115;47.128;15.422;2023-06-04T09:19:18;6.38;;;3.90;;
23868;SDS011;12115;47.128;15.422;2023-06-04T09:21:49;7.50;;;4.30;;
23868;SDS011;12115;47.128;15.422;2023-06-04T09:24:25;7.90;;;4.47;;
23868;SDS011;12115;47.128;15.422;2023-06-04T09:27:10;7.63;;;4.22;;
23868;SDS011;12115;47.128;15.422;2023-06-04T09:29:56;6.70;;;4.00;;
23868;SDS011;12115;47.128;15.422;2023-06-04T09:32:28;5.97;;;4.13;;
23868;SDS011;12115;47.128;15.422;2023-06-04T09:35:08;7.03;;;4.03;;
23868;SDS011;12115;47.128;15.422;2023-06-04T09:37:35;9.70;;;4.32;;
23868;SDS011;12115;47.128;15.422;2023-06-04T09:40:03;7.53;;;4.35;;
23868;SDS011;12115;47.128;15.422;2023-06-04T09:42:43;5.60;;;3.63;;
23868;SDS011;12115;47.128;15.422;2023-06-04T09:45:30;7.55;;;4.45;;
23868;SDS011;12115;47.128;15.422;2023-06-04T09:47:58;7.50;;;4.50;;
23868;SDS011;12115;47.128;15.422;2023-06-04T09:50:31;5.82;;;3.72;;
23868;SDS011;12115;47.128;15.422;2023-06-04T09:55:55;7.13;;;4.40;;
23868;SDS011;12115;47.128;15.422;2023-06-04T09:58:27;6.93;;;4.32;;
23868;SDS011;12115;47.128;15.422;2023-06-04T10:00:59;6.63;;;4.22;;
23868;SDS011;12115;47.128;15.422;2023-06-04T10:03:31;7.68;;;4.18;;
23868;SDS011;12115;47.128;15.422;2023-06-04T10:06:03;7.57;;;4.32;;
23868;SDS011;12115;47.128;15.422;2023-06-04T10:08:32;8.23;;;3.85;;
23868;SDS011;12115;47.128;15.422;2023-06-04T10:11:01;6.30;;;4.18;;
23868;SDS011;12115;47.128;15.422;2023-06-04T10:13:30;8.95;;;4.63;;
23868;SDS011;12115;47.128;15.422;2023-06-04T10:16:16;7.40;;;5.10;;
23868;SDS011;12115;47.128;15.422;2023-06-04T10:19:01;6.60;;;4.18;;
23868;SDS011;12115;47.128;15.422;2023-06-04T10:21:32;5.80;;;4.22;;
23868;SDS011;12115;47.128;15.422;2023-06-04T10:24:01;5.82;;;4.40;;
23868;SDS011;12115;47.128;15.422;2023-06-04T10:26:29;7.50;;;4.50;;
23868;SDS011;12115;47.128;15.422;2023-06-04T10:29:00;7.88;;;3.88;;
23868;SDS011;12115;47.128;15.422;2023-06-04T10:31:28;7.82;;;4.55;;
23868;SDS011;12115;47.128;15.422;2023-06-04T10:33:56;8.23;;;3.88;;
23868;SDS011;12115;47.128;15.422;2023-06-04T10:36:24;4.90;;;3.90;;
23868;SDS011;12115;47.128;15.422;2023-06-04T10:38:52;5.80;;;4.60;;
23868;SDS011;12115;47.128;15.422;2023-06-04T10:41:22;7.90;;;4.43;;
23868;SDS011;12115;47.128;15.422;2023-06-04T10:43:51;4.72;;;3.95;;
23868;SDS011;12115;47.128;15.422;2023-06-04T10:46:36;5.95;;;4.00;;
23868;SDS011;12115;47.128;15.422;2023-06-04T10:51:37;5.28;;;4.18;;
23868;SDS011;12115;47.128;15.422;2023-06-04T10:54:04;7.55;;;4.13;;
23868;SDS011;12115;47.128;15.422;2023-06-04T10:56:32;7.13;;;4.07;;
23868;SDS011;12115;47.128;15.422;2023-06-04T10:59:16;5.63;;;3.85;;
23868;SDS011;12115;47.128;15.422;2023-06-04T11:01:44;8.17;;;4.00;;
23868;SDS011;12115;47.128;15.422;2023-06-04T11:04:25;6.45;;;4.47;;
23868;SDS011;12115;47.128;15.422;2023-06-04T11:09:30;6.13;;;4.38;;
23868;SDS011;12115;47.128;15.422;2023-06-04T11:12:00;6.95;;;4.35;;
23868;SDS011;12115;47.128;15.422;2023-06-04T11:14:28;6.22;;;4.40;;
23868;SDS011;12115;47.128;15.422;2023-06-04T11:16:55;6.20;;;4.80;;
23868;SDS011;12115;47.128;15.422;2023-06-04T11:19:22;7.88;;;4.70;;
23868;SDS011;12115;47.128;15.422;2023-06-04T11:21:50;8.57;;;4.43;;
23868;SDS011;12115;47.128;15.422;2023-06-04T11:24:19;6.55;;;4.05;;
23868;SDS011;12115;47.128;15.422;2023-06-04T11:26:49;6.97;;;4.53;;
23868;SDS011;12115;47.128;15.422;2023-06-04T11:29:38;9.68;;;4.45;;
23868;SDS011;12115;47.128;15.422;2023-06-04T11:32:20;7.90;;;4.20;;
23868;SDS011;12115;47.128;15.422;2023-06-04T11:35:01;6.90;;;4.50;;
23868;SDS011;12115;47.128;15.422;2023-06-04T11:37:33;7.97;;;4.80;;
23868;SDS011;12115;47.128;15.422;2023-06-04T11:40:02;6.22;;;4.40;;
23868;SDS011;12115;47.128;15.422;2023-06-04T11:42:32;5.90;;;4.57;;
23868;SDS011;12115;47.128;15.422;2023-06-04T11:44:59;5.93;;;4.45;;
23868;SDS011;12115;47.128;15.422;2023-06-04T11:47:27;5.50;;;4.20;;
23868;SDS011;12115;47.128;15.422;2023-06-04T11:49:55;8.95;;;4.72;;
23868;SDS011;12115;47.128;15.422;2023-06-04T11:52:23;7.15;;;5.00;;
23868;SDS011;12115;47.128;15.422;2023-06-04T11:54:50;7.45;;;4.47;;
23868;SDS011;12115;47.128;15.422;2023-06-04T11:57:18;5.53;;;4.22;;
23868;SDS011;12115;47.128;15.422;2023-06-04T11:59:45;5.55;;;4.75;;
23868;SDS011;12115;47.128;15.422;2023-06-04T12:02:12;9.13;;;4.65;;
23868;SDS011;12115;47.128;15.422;2023-06-04T12:04:40;5.78;;;3.92;;
23868;SDS011;12115;47.128;15.422;2023-06-04T12:07:07;6.20;;;4.57;;
23868;SDS011;12115;47.128;15.422;2023-06-04T12:09:35;6.65;;;4.65;;
23868;SDS011;12115;47.128;15.422;2023-06-04T12:12:05;9.20;;;4.00;;
23868;SDS011;12115;47.128;15.422;2023-06-04T12:14:34;10.70;;;4.63;;
23868;SDS011;12115;47.128;15.422;2023-06-04T12:17:08;10.73;;;4.43;;
23868;SDS011;12115;47.128;15.422;2023-06-04T12:19:49;4.95;;;4.40;;
23868;SDS011;12115;47.128;15.422;2023-06-04T12:22:18;9.70;;;4.30;;
23868;SDS011;12115;47.128;15.422;2023-06-04T12:24:50;6.85;;;4.35;;
23868;SDS011;12115;47.128;15.422;2023-06-04T12:27:22;7.20;;;4.40;;
23868;SDS011;12115;47.128;15.422;2023-06-04T12:30:00;6.05;;;4.40;;
23868;SDS011;12115;47.128;15.422;2023-06-04T12:32:28;6.30;;;4.43;;
23868;SDS011;12115;47.128;15.422;2023-06-04T12:34:56;6.45;;;4.43;;
23868;SDS011;12115;47.128;15.422;2023-06-04T12:37:23;7.07;;;4.50;;
23868;SDS011;12115;47.128;15.422;2023-06-04T12:39:54;9.90;;;4.72;;
23868;SDS011;12115;47.128;15.422;2023-06-04T12:42:21;7.53;;;4.80;;
23868;SDS011;12115;47.128;15.422;2023-06-04T12:44:49;6.65;;;4.70;;
23868;SDS011;12115;47.128;15.422;2023-06-04T12:47:16;8.32;;;5.07;;
23868;SDS011;12115;47.128;15.422;2023-06-04T12:49:44;7.60;;;4.85;;
23868;SDS011;12115;47.128;15.422;2023-06-04T12:52:12;6.05;;;4.30;;
23868;SDS011;12115;47.128;15.422;2023-06-04T12:54:42;5.60;;;5.00;;
23868;SDS011;12115;47.128;15.422;2023-06-04T12:57:10;7.75;;;4.47;;
23868;SDS011;12115;47.128;15.422;2023-06-04T12:59:37;6.93;;;4.45;;
23868;SDS011;12115;47.128;15.422;2023-06-04T13:02:04;6.10;;;4.22;;
23868;SDS011;12115;47.128;15.422;2023-06-04T13:04:32;9.38;;;4.85;;
23868;SDS011;12115;47.128;15.422;2023-06-04T13:06:59;10.80;;;5.28;;
23868;SDS011;12115;47.128;15.422;2023-06-04T13:09:27;6.35;;;5.25;;
23868;SDS011;12115;47.128;15.422;2023-06-04T13:14:51;8.38;;;4.93;;
23868;SDS011;12115;47.128;15.422;2023-06-04T13:17:43;9.93;;;5.20;;
23868;SDS011;12115;47.128;15.422;2023-06-04T13:20:25;7.90;;;5.35;;
23868;SDS011;12115;47.128;15.422;2023-06-04T13:28:54;7.05;;;6.00;;
23868;SDS011;12115;47.128;15.422;2023-06-04T13:32:02;7.80;;;6.65;;
23868;SDS011;12115;47.128;15.422;2023-06-04T13:35:16;7.32;;;5.53;;
23868;SDS011;12115;47.128;15.422;2023-06-04T13:38:00;12.13;;;6.28;;
23868;SDS011;12115;47.128;15.422;2023-06-04T13:40:51;7.78;;;6.00;;
23868;SDS011;12115;47.128;15.422;2023-06-04T13:43:49;8.13;;;6.72;;
23868;SDS011;12115;47.128;15.422;2023-06-04T13:46:47;11.95;;;7.20;;
23868;SDS011;12115;47.128;15.422;2023-06-04T13:50:04;7.72;;;6.57;;
23868;SDS011;12115;47.128;15.422;2023-06-04T13:53:32;7.25;;;6.53;;
23868;SDS011;12115;47.128;15.422;2023-06-04T13:56:33;8.82;;;6.25;;
23868;SDS011;12115;47.128;15.422;2023-06-04T14:00:02;10.18;;;6.55;;
23868;SDS011;12115;47.128;15.422;2023-06-04T14:02:55;10.15;;;7.15;;
23868;SDS011;12115;47.128;15.422;2023-06-04T14:05:53;8.48;;;6.57;;
23868;SDS011;12115;47.128;15.422;2023-06-04T14:08:38;9.95;;;6.47;;
23868;SDS011;12115;47.128;15.422;2023-06-04T14:11:24;11.48;;;7.65;;
23868;SDS011;12115;47.128;15.422;2023-06-04T14:14:36;10.05;;;6.97;;
23868;SDS011;12115;47.128;15.422;2023-06-04T14:17:26;7.88;;;5.90;;
23868;SDS011;12115;47.128;15.422;2023-06-04T14:20:28;8.35;;;6.65;;
23868;SDS011;12115;47.128;15.422;2023-06-04T14:23:20;8.87;;;7.20;;
23868;SDS011;12115;47.128;15.422;2023-06-04T14:26:09;13.32;;;7.53;;
23868;SDS011;12115;47.128;15.422;2023-06-04T14:29:18;8.25;;;6.53;;
23868;SDS011;12115;47.128;15.422;2023-06-04T14:32:13;6.80;;;6.10;;
23868;SDS011;12115;47.128;15.422;2023-06-04T14:34:41;9.70;;;6.38;;
23868;SDS011;12115;47.128;15.422;2023-06-04T14:38:17;9.25;;;6.40;;
23868;SDS011;12115;47.128;15.422;2023-06-04T14:41:45;9.23;;;6.93;;
23868;SDS011;12115;47.128;15.422;2023-06-04T14:48:14;14.65;;;4.88;;
23868;SDS011;12115;47.128;15.422;2023-06-04T14:50:59;6.45;;;4.40;;
23868;SDS011;12115;47.128;15.422;2023-06-04T14:54:12;5.90;;;4.13;;
23868;SDS011;12115;47.128;15.422;2023-06-04T14:57:03;6.90;;;3.95;;
23868;SDS011;12115;47.128;15.422;2023-06-04T14:59:59;4.95;;;3.38;;
23868;SDS011;12115;47.128;15.422;2023-06-04T15:02:43;6.95;;;3.83;;
23868;SDS011;12115;47.128;15.422;2023-06-04T15:05:12;5.43;;;3.63;;
23868;SDS011;12115;47.128;15.422;2023-06-04T15:07:40;5.22;;;3.92;;
23868;SDS011;12115;47.128;15.422;2023-06-04T15:10:08;5.93;;;3.33;;
23868;SDS011;12115;47.128;15.422;2023-06-04T15:12:35;6.03;;;4.00;;
23868;SDS011;12115;47.128;15.422;2023-06-04T15:15:06;4.50;;;3.23;;
23868;SDS011;12115;47.128;15.422;2023-06-04T15:17:35;4.75;;;3.80;;
23868;SDS011;12115;47.128;15.422;2023-06-04T15:20:03;6.43;;;3.90;;
23868;SDS011;12115;47.128;15.422;2023-06-04T15:22:30;4.88;;;3.65;;
23868;SDS011;12115;47.128;15.422;2023-06-04T15:24:57;4.90;;;2.92;;
23868;SDS011;12115;47.128;15.422;2023-06-04T15:27:24;6.93;;;4.55;;
23868;SDS011;12115;47.128;15.422;2023-06-04T15:29:52;3.95;;;3.35;;
23868;SDS011;12115;47.128;15.422;2023-06-04T15:32:19;8.73;;;3.70;;